createdAt,value
2023-07-24T00:02:06.594Z,23.79
2023-07-24T00:04:34.551Z,23.78
2023-07-24T00:07:01.970Z,23.78
2023-07-24T00:09:30.153Z,23.77
2023-07-24T00:11:57.657Z,23.79
2023-07-24T00:14:25.311Z,23.78
2023-07-24T00:16:52.829Z,23.78
2023-07-24T00:19:20.537Z,23.78
2023-07-24T00:21:47.923Z,23.78
2023-07-24T00:24:15.794Z,23.78
2023-07-24T00:26:43.142Z,23.78
2023-07-24T00:29:10.735Z,23.77
2023-07-24T00:31:38.055Z,23.76
2023-07-24T00:34:05.667Z,23.76
2023-07-24T00:36:33.165Z,23.77
2023-07-24T00:39:00.897Z,23.76
2023-07-24T00:41:28.768Z,23.76
2023-07-24T00:43:56.394Z,23.76
2023-07-24T00:46:24.931Z,23.76
2023-07-24T00:48:53.789Z,23.75
2023-07-24T00:51:21.199Z,23.75
2023-07-24T00:53:49.000Z,23.76
2023-07-24T00:56:16.578Z,23.75
2023-07-24T00:58:44.209Z,23.75
2023-07-24T01:01:12.049Z,23.75
2023-07-24T01:03:39.880Z,23.75
2023-07-24T01:06:07.277Z,23.76
2023-07-24T01:08:34.902Z,23.75
2023-07-24T01:11:13.012Z,23.74
2023-07-24T01:13:45.381Z,23.75
2023-07-24T01:16:20.089Z,23.75
2023-07-24T01:18:50.396Z,23.74
2023-07-24T01:21:24.779Z,23.75
2023-07-24T01:24:09.023Z,23.74
2023-07-24T01:26:36.544Z,23.74
2023-07-24T01:29:04.174Z,23.75
2023-07-24T01:31:31.493Z,23.74
2023-07-24T01:33:59.152Z,23.74
2023-07-24T01:36:26.507Z,23.74
2023-07-24T01:38:55.002Z,23.74
2023-07-24T01:41:22.496Z,23.74
2023-07-24T01:43:50.104Z,23.73
2023-07-24T01:46:17.464Z,23.74
2023-07-24T01:48:45.175Z,23.74
2023-07-24T01:51:12.514Z,23.74
2023-07-24T01:53:40.215Z,23.74
2023-07-24T01:56:07.875Z,23.74
2023-07-24T01:58:35.476Z,23.74
2023-07-24T02:01:02.984Z,23.73
2023-07-24T02:03:30.831Z,23.74
2023-07-24T02:05:58.194Z,23.73
2023-07-24T02:08:25.862Z,23.74
2023-07-24T02:10:53.220Z,23.73
2023-07-24T02:13:20.856Z,23.73
2023-07-24T02:15:48.423Z,23.73
2023-07-24T02:18:16.114Z,23.74
2023-07-24T02:20:50.115Z,23.73
2023-07-24T02:23:17.793Z,23.73
2023-07-24T02:25:45.212Z,23.73
2023-07-24T02:28:12.863Z,23.73
2023-07-24T02:30:41.108Z,23.71
2023-07-24T02:33:08.810Z,23.72
2023-07-24T02:35:40.989Z,23.71
2023-07-24T02:38:09.162Z,23.71
2023-07-24T02:40:37.318Z,23.72
2023-07-24T02:43:04.937Z,23.71
2023-07-24T02:45:35.703Z,23.70
2023-07-24T02:48:03.859Z,23.72
2023-07-24T02:50:31.674Z,23.71
2023-07-24T02:52:59.508Z,23.72
2023-07-24T02:55:26.882Z,23.71
2023-07-24T02:57:54.550Z,23.73
2023-07-24T03:00:21.887Z,23.70
2023-07-24T03:02:49.580Z,23.71
2023-07-24T03:05:17.031Z,23.71
2023-07-24T03:07:44.635Z,23.70
2023-07-24T03:10:12.022Z,23.70
2023-07-24T03:12:39.784Z,23.70
2023-07-24T03:15:08.568Z,23.70
2023-07-24T03:17:36.282Z,23.69
2023-07-24T03:20:15.310Z,23.69
2023-07-24T03:22:43.786Z,23.69
2023-07-24T03:25:11.319Z,23.68
2023-07-24T03:27:38.951Z,23.67
2023-07-24T03:30:07.102Z,23.69
2023-07-24T03:32:34.901Z,23.69
2023-07-24T03:35:02.230Z,23.69
2023-07-24T03:37:29.980Z,23.68
2023-07-24T03:39:57.348Z,23.68
2023-07-24T03:42:29.396Z,23.67
2023-07-24T03:44:57.323Z,23.68
2023-07-24T03:47:25.488Z,23.68
2023-07-24T03:49:52.979Z,23.69
2023-07-24T03:52:20.627Z,23.69
2023-07-24T03:54:48.032Z,23.69
2023-07-24T03:57:15.684Z,23.68
2023-07-24T03:59:43.030Z,23.69
2023-07-24T04:02:11.014Z,23.70
2023-07-24T04:04:38.888Z,23.70
2023-07-24T04:07:06.751Z,23.70
2023-07-24T04:09:34.241Z,23.71
2023-07-24T04:12:02.115Z,23.71
2023-07-24T04:14:29.427Z,23.73
2023-07-24T04:16:57.158Z,23.73
2023-07-24T04:19:24.579Z,23.73
2023-07-24T04:21:52.181Z,23.73
2023-07-24T04:24:19.545Z,23.73
2023-07-24T04:26:47.422Z,23.74
2023-07-24T04:29:14.758Z,23.74
2023-07-24T04:31:42.512Z,23.74
2023-07-24T04:34:09.884Z,23.74
2023-07-24T04:36:37.513Z,23.74
2023-07-24T04:39:04.838Z,23.75
2023-07-24T04:41:32.466Z,23.77
2023-07-24T04:43:59.800Z,23.78
2023-07-24T04:46:27.453Z,23.79
2023-07-24T04:48:54.828Z,23.79
2023-07-24T04:51:22.421Z,23.79
2023-07-24T04:53:49.837Z,23.79
2023-07-24T04:56:17.456Z,23.82
2023-07-24T04:58:44.805Z,23.81
2023-07-24T05:01:12.418Z,23.81
2023-07-24T05:03:39.823Z,23.84
2023-07-24T05:06:07.463Z,23.83
2023-07-24T05:08:34.763Z,23.84
2023-07-24T05:11:02.404Z,23.84
2023-07-24T05:13:29.827Z,23.84
2023-07-24T05:15:57.448Z,23.85
2023-07-24T05:18:24.856Z,23.86
2023-07-24T05:20:52.784Z,23.89
2023-07-24T05:23:20.228Z,23.91
2023-07-24T05:25:48.089Z,23.94
2023-07-24T05:28:15.416Z,23.96
2023-07-24T05:30:43.025Z,23.98
2023-07-24T05:33:10.406Z,24.03
2023-07-24T05:35:38.162Z,24.06
2023-07-24T05:38:05.556Z,24.08
2023-07-24T05:40:33.451Z,24.11
2023-07-24T05:43:00.813Z,24.13
2023-07-24T05:45:28.820Z,24.13
2023-07-24T05:47:56.193Z,24.11
2023-07-24T05:50:24.016Z,24.12
2023-07-24T05:52:51.336Z,24.12
2023-07-24T05:55:18.989Z,24.12
2023-07-24T05:57:46.314Z,24.16
2023-07-24T06:00:14.037Z,24.15
2023-07-24T06:02:41.385Z,24.13
2023-07-24T06:05:09.228Z,24.13
2023-07-24T06:07:36.566Z,24.12
2023-07-24T06:10:04.596Z,24.10
2023-07-24T06:12:33.804Z,24.10
2023-07-24T06:15:01.426Z,24.10
2023-07-24T06:17:28.854Z,24.11
2023-07-24T06:19:56.494Z,24.10
2023-07-24T06:22:24.104Z,24.10
2023-07-24T06:24:51.718Z,24.10
2023-07-24T06:27:19.116Z,24.10
2023-07-24T06:29:48.202Z,24.10
2023-07-24T06:32:16.736Z,24.10
2023-07-24T06:34:44.321Z,24.12
2023-07-24T06:37:22.329Z,24.11
2023-07-24T06:39:50.830Z,24.11
2023-07-24T06:42:18.217Z,24.12
2023-07-24T06:44:45.819Z,24.12
2023-07-24T06:47:13.141Z,24.13
2023-07-24T06:49:40.979Z,24.13
2023-07-24T06:52:08.401Z,24.13
2023-07-24T06:54:36.011Z,24.14
2023-07-24T06:57:03.598Z,24.14
2023-07-24T06:59:31.271Z,24.15
2023-07-24T07:01:58.663Z,24.15
2023-07-24T07:04:26.286Z,24.15
2023-07-24T07:06:53.604Z,24.16
2023-07-24T07:09:21.218Z,24.16
2023-07-24T07:11:48.542Z,24.17
2023-07-24T07:14:16.231Z,24.17
2023-07-24T07:16:43.615Z,24.18
2023-07-24T07:19:11.280Z,24.19
2023-07-24T07:21:38.696Z,24.21
2023-07-24T07:24:06.614Z,24.22
2023-07-24T07:26:34.334Z,24.21
2023-07-24T07:29:02.019Z,24.22
2023-07-24T07:31:29.401Z,24.22
2023-07-24T07:33:57.116Z,24.22
2023-07-24T07:36:24.469Z,24.21
2023-07-24T07:38:52.121Z,24.20
2023-07-24T07:41:19.525Z,24.20
2023-07-24T07:43:47.130Z,24.21
2023-07-24T07:46:14.588Z,24.22
2023-07-24T07:48:42.833Z,24.22
2023-07-24T07:51:10.175Z,24.24
2023-07-24T07:53:38.045Z,24.25
2023-07-24T07:56:05.590Z,24.25
2023-07-24T07:58:33.200Z,24.27
2023-07-24T08:01:07.346Z,24.26
2023-07-24T08:03:35.657Z,24.27
2023-07-24T08:06:03.164Z,24.27
2023-07-24T08:08:30.776Z,24.26
2023-07-24T08:10:58.196Z,24.23
2023-07-24T08:13:25.778Z,24.25
2023-07-24T08:15:53.181Z,24.27
2023-07-24T08:18:20.789Z,24.28
2023-07-24T08:20:48.209Z,24.27
2023-07-24T08:23:15.840Z,24.29
2023-07-24T08:25:56.100Z,24.30
2023-07-24T08:28:23.738Z,24.30
2023-07-24T08:30:59.015Z,24.33
2023-07-24T08:33:26.877Z,24.33
2023-07-24T08:36:07.787Z,24.33
2023-07-24T08:38:38.667Z,24.34
2023-07-24T08:41:10.895Z,24.36
2023-07-24T08:43:41.309Z,24.36
2023-07-24T08:46:09.502Z,24.38
2023-07-24T08:48:41.600Z,24.39
2023-07-24T08:51:14.294Z,24.41
2023-07-24T08:53:43.433Z,24.41
2023-07-24T08:56:13.384Z,24.41
2023-07-24T08:58:41.804Z,24.39
2023-07-24T09:01:10.005Z,24.39
2023-07-24T09:03:38.276Z,24.40
2023-07-24T09:06:08.592Z,24.41
2023-07-24T09:08:38.960Z,24.42
2023-07-24T09:11:08.266Z,24.43
2023-07-24T09:13:43.204Z,24.46
2023-07-24T09:16:21.299Z,24.47
2023-07-24T09:18:59.676Z,24.49
2023-07-24T09:21:36.148Z,24.50
2023-07-24T09:24:16.476Z,24.49
2023-07-24T09:26:49.982Z,24.52
2023-07-24T09:29:18.440Z,24.52
2023-07-24T09:31:46.766Z,24.53
2023-07-24T09:34:18.402Z,24.54
2023-07-24T09:36:46.510Z,24.55
2023-07-24T09:39:14.181Z,24.56
2023-07-24T09:41:41.960Z,24.56
2023-07-24T09:44:13.045Z,24.57
2023-07-24T09:49:11.787Z,24.58
2023-07-24T09:51:39.864Z,24.60
2023-07-24T09:54:19.375Z,24.60
2023-07-24T09:56:53.777Z,24.61
2023-07-24T09:59:30.460Z,24.62
2023-07-24T10:01:57.906Z,24.63
2023-07-24T10:04:25.935Z,24.63
2023-07-24T10:06:53.567Z,24.62
2023-07-24T10:09:24.025Z,24.62
2023-07-24T10:11:51.362Z,24.63
2023-07-24T10:14:19.732Z,24.66
2023-07-24T10:16:47.149Z,24.66
2023-07-24T10:19:17.862Z,24.68
2023-07-24T10:21:49.850Z,24.69
2023-07-24T10:24:31.416Z,24.70
2023-07-24T10:27:05.367Z,24.72
2023-07-24T10:29:36.916Z,24.73
2023-07-24T10:32:05.106Z,24.73
2023-07-24T10:34:42.442Z,24.74
2023-07-24T10:37:10.988Z,24.76
2023-07-24T10:39:43.924Z,24.76
2023-07-24T10:42:11.977Z,24.78
2023-07-24T10:44:40.249Z,24.76
2023-07-24T10:47:07.622Z,24.73
2023-07-24T10:49:35.660Z,24.72
2023-07-24T10:52:03.027Z,24.72
2023-07-24T10:54:32.566Z,24.70
2023-07-24T10:57:01.933Z,24.70
2023-07-24T10:59:40.302Z,24.71
2023-07-24T11:02:08.396Z,24.74
2023-07-24T11:04:36.813Z,24.73
2023-07-24T11:07:04.492Z,24.71
2023-07-24T11:09:37.227Z,24.70
2023-07-24T11:12:18.094Z,24.68
2023-07-24T11:14:55.236Z,24.68
2023-07-24T11:17:23.428Z,24.68
2023-07-24T11:19:51.055Z,24.67
2023-07-24T11:22:24.416Z,24.67
2023-07-24T11:24:52.159Z,24.67
2023-07-24T11:27:20.210Z,24.67
2023-07-24T11:29:51.011Z,24.71
2023-07-24T11:32:21.760Z,24.73
2023-07-24T11:34:50.948Z,24.72
2023-07-24T11:37:21.802Z,24.74
2023-07-24T11:39:59.990Z,24.75
2023-07-24T11:42:28.494Z,24.77
2023-07-24T11:44:56.177Z,24.79
2023-07-24T11:47:23.742Z,24.79
2023-07-24T11:50:01.606Z,24.80
2023-07-24T11:52:49.488Z,24.83
2023-07-24T11:55:20.175Z,24.84
2023-07-24T11:58:01.377Z,24.85
2023-07-24T12:00:29.280Z,24.86
2023-07-24T12:03:05.845Z,24.87
2023-07-24T12:05:44.272Z,24.89
2023-07-24T12:08:12.329Z,24.90
2023-07-24T12:10:41.188Z,24.91
2023-07-24T12:13:08.788Z,24.92
2023-07-24T12:15:36.548Z,24.93
2023-07-24T12:18:05.591Z,24.94
2023-07-24T12:20:33.413Z,24.96
2023-07-24T12:23:01.164Z,24.97
2023-07-24T12:25:28.857Z,24.98
2023-07-24T12:27:56.419Z,24.98
2023-07-24T12:30:24.167Z,24.98
2023-07-24T12:32:51.556Z,24.99
2023-07-24T12:35:19.321Z,25.00
2023-07-24T12:37:46.973Z,25.02
2023-07-24T12:40:14.855Z,25.04
2023-07-24T12:42:42.207Z,25.05
2023-07-24T12:45:10.105Z,25.06
2023-07-24T12:47:37.550Z,25.08
2023-07-24T12:50:07.766Z,25.08
2023-07-24T12:52:35.559Z,25.09
2023-07-24T12:55:03.725Z,25.10
2023-07-24T12:57:31.167Z,25.11
2023-07-24T12:59:58.807Z,25.13
2023-07-24T13:02:26.292Z,25.13
2023-07-24T13:04:54.006Z,25.13
2023-07-24T13:07:21.422Z,25.15
2023-07-24T13:09:49.404Z,25.16
2023-07-24T13:12:17.103Z,25.15
2023-07-24T13:14:44.765Z,25.13
2023-07-24T13:17:13.670Z,25.15
2023-07-24T13:19:41.277Z,25.16
2023-07-24T13:22:08.622Z,25.17
2023-07-24T13:24:36.258Z,25.19
2023-07-24T13:27:03.716Z,25.24
2023-07-24T13:29:32.388Z,25.27
2023-07-24T13:31:59.759Z,25.31
2023-07-24T13:34:27.427Z,25.31
2023-07-24T13:36:54.791Z,25.33
2023-07-24T13:39:22.704Z,25.33
2023-07-24T13:41:50.050Z,25.33
2023-07-24T13:44:17.650Z,25.35
2023-07-24T13:46:45.031Z,25.38
2023-07-24T13:49:12.696Z,25.40
2023-07-24T13:51:40.038Z,25.43
2023-07-24T13:54:07.775Z,25.45
2023-07-24T13:56:36.863Z,25.45
2023-07-24T13:59:04.483Z,25.48
2023-07-24T14:01:32.292Z,25.50
2023-07-24T14:04:01.646Z,25.53
2023-07-24T14:06:29.115Z,25.55
2023-07-24T14:08:56.756Z,25.55
2023-07-24T14:11:25.949Z,25.55
2023-07-24T14:13:53.570Z,25.55
2023-07-24T14:16:20.954Z,25.54
2023-07-24T14:18:48.618Z,25.53
2023-07-24T14:21:16.036Z,25.52
2023-07-24T14:23:43.632Z,25.51
2023-07-24T14:26:10.973Z,25.50
2023-07-24T14:28:38.565Z,25.51
2023-07-24T14:31:06.513Z,25.49
2023-07-24T14:33:34.178Z,25.49
2023-07-24T14:36:01.681Z,25.47
2023-07-24T14:38:29.346Z,25.48
2023-07-24T14:40:56.668Z,25.45
2023-07-24T14:43:24.342Z,25.45
2023-07-24T14:45:51.781Z,25.43
2023-07-24T14:48:19.408Z,25.42
2023-07-24T14:50:46.741Z,25.40
2023-07-24T14:53:14.345Z,25.37
2023-07-24T14:55:41.777Z,25.37
2023-07-24T14:58:09.410Z,25.34
2023-07-24T15:00:36.745Z,25.32
2023-07-24T15:03:04.378Z,25.30
2023-07-24T15:05:31.900Z,25.28
2023-07-24T15:07:59.500Z,25.28
2023-07-24T15:10:26.952Z,25.26
2023-07-24T15:12:54.596Z,25.25
2023-07-24T15:15:22.010Z,25.25
2023-07-24T15:17:49.703Z,25.24
2023-07-24T15:20:17.170Z,25.22
2023-07-24T15:22:45.111Z,25.22
2023-07-24T15:25:12.644Z,25.20
2023-07-24T15:27:41.104Z,25.21
2023-07-24T15:30:08.613Z,25.20
2023-07-24T15:32:36.300Z,25.20
2023-07-24T15:35:04.210Z,25.18
2023-07-24T15:37:31.971Z,25.18
2023-07-24T15:40:00.263Z,25.18
2023-07-24T15:42:28.027Z,25.18
2023-07-24T15:44:55.459Z,25.19
2023-07-24T15:47:24.406Z,25.18
2023-07-24T15:49:51.908Z,25.17
2023-07-24T15:52:19.847Z,25.15
2023-07-24T15:54:47.257Z,25.13
2023-07-24T15:57:14.920Z,25.11
2023-07-24T15:59:42.208Z,25.11
2023-07-24T16:02:09.936Z,25.10
2023-07-24T16:04:37.290Z,25.11
2023-07-24T16:07:05.180Z,25.10
2023-07-24T16:09:32.599Z,25.10
2023-07-24T16:12:00.262Z,25.10
2023-07-24T16:14:27.597Z,25.11
2023-07-24T16:16:55.191Z,25.10
2023-07-24T16:19:23.435Z,25.12
2023-07-24T16:21:52.371Z,25.13
2023-07-24T16:24:21.291Z,25.12
2023-07-24T16:26:49.842Z,25.13
2023-07-24T16:29:17.633Z,25.13
2023-07-24T16:31:45.285Z,25.13
2023-07-24T16:34:13.628Z,25.13
2023-07-24T16:36:42.376Z,25.15
2023-07-24T16:39:09.747Z,25.15
2023-07-24T16:41:37.928Z,25.16
2023-07-24T16:44:05.683Z,25.17
2023-07-24T16:46:33.717Z,25.17
2023-07-24T16:49:01.177Z,25.17
2023-07-24T16:51:29.058Z,25.16
2023-07-24T16:53:56.668Z,25.16
2023-07-24T16:56:24.366Z,25.16
2023-07-24T16:58:51.738Z,25.15
2023-07-24T17:01:19.671Z,25.15
2023-07-24T17:03:47.034Z,25.14
2023-07-24T17:06:14.635Z,25.13
2023-07-24T17:08:42.006Z,25.13
2023-07-24T17:11:09.909Z,25.13
2023-07-24T17:13:37.279Z,25.11
2023-07-24T17:16:05.134Z,25.12
2023-07-24T17:18:32.459Z,25.13
2023-07-24T17:21:00.155Z,25.11
2023-07-24T17:23:27.533Z,25.11
2023-07-24T17:25:55.125Z,25.12
2023-07-24T17:28:22.481Z,25.12
2023-07-24T17:30:50.945Z,25.11
2023-07-24T17:33:18.758Z,25.09
2023-07-24T17:35:46.396Z,25.07
2023-07-24T17:38:13.808Z,25.02
2023-07-24T17:40:41.478Z,24.99
2023-07-24T17:43:08.889Z,24.98
2023-07-24T17:45:37.754Z,24.96
2023-07-24T17:48:05.582Z,24.95
2023-07-24T17:50:35.462Z,24.95
2023-07-24T17:53:02.825Z,24.95
2023-07-24T17:55:30.497Z,24.95
2023-07-24T17:57:57.854Z,24.95
2023-07-24T18:00:25.487Z,24.96
2023-07-24T18:02:53.065Z,24.96
2023-07-24T18:05:21.014Z,24.95
2023-07-24T18:07:51.201Z,24.96
2023-07-24T18:10:21.288Z,24.95
2023-07-24T18:12:49.283Z,24.96
2023-07-24T18:15:16.916Z,24.95
2023-07-24T18:17:46.500Z,24.95
2023-07-24T18:20:14.274Z,24.93
2023-07-24T18:22:42.717Z,24.93
2023-07-24T18:25:11.326Z,24.92
2023-07-24T18:27:39.825Z,24.91
2023-07-24T18:30:08.205Z,24.90
2023-07-24T18:32:35.637Z,24.90
2023-07-24T18:35:03.439Z,24.90
2023-07-24T18:37:30.823Z,24.89
2023-07-24T18:39:58.468Z,24.89
2023-07-24T18:42:25.826Z,24.89
2023-07-24T18:44:53.484Z,24.89
2023-07-24T18:47:20.872Z,24.88
2023-07-24T18:49:48.563Z,24.88
2023-07-24T18:52:15.906Z,24.88
2023-07-24T18:54:43.612Z,24.87
2023-07-24T18:57:11.022Z,24.87
2023-07-24T18:59:38.740Z,24.87
2023-07-24T19:02:06.844Z,24.87
2023-07-24T19:04:34.542Z,24.87
2023-07-24T19:07:02.008Z,24.86
2023-07-24T19:09:30.092Z,24.86
2023-07-24T19:11:57.492Z,24.87
2023-07-24T19:14:25.110Z,24.87
2023-07-24T19:16:52.486Z,24.86
2023-07-24T19:19:20.138Z,24.86
2023-07-24T19:21:47.486Z,24.86
2023-07-24T19:24:15.100Z,24.84
2023-07-24T19:26:42.497Z,24.85
2023-07-24T19:29:10.136Z,24.84
2023-07-24T19:31:37.609Z,24.84
2023-07-24T19:34:05.425Z,24.83
2023-07-24T19:36:32.857Z,24.84
2023-07-24T19:39:01.703Z,24.82
2023-07-24T19:41:29.363Z,24.83
2023-07-24T19:43:58.115Z,24.82
2023-07-24T19:46:25.863Z,24.83
2023-07-24T19:48:54.340Z,24.82
2023-07-24T19:51:21.800Z,24.81
2023-07-24T19:53:51.561Z,24.81
2023-07-24T19:56:19.222Z,24.81
2023-07-24T19:58:46.844Z,24.80
2023-07-24T20:01:14.353Z,24.79
2023-07-24T20:03:42.237Z,24.78
2023-07-24T20:06:11.853Z,24.78
2023-07-24T20:08:39.632Z,24.77
2023-07-24T20:11:07.086Z,24.76
2023-07-24T20:13:35.960Z,24.75
2023-07-24T20:16:04.144Z,24.75
2023-07-24T20:18:33.263Z,24.74
2023-07-24T20:21:01.300Z,24.74
2023-07-24T20:23:29.210Z,24.73
2023-07-24T20:25:56.620Z,24.73
2023-07-24T20:28:24.693Z,24.73
2023-07-24T20:30:52.009Z,24.72
2023-07-24T20:33:19.586Z,24.72
2023-07-24T20:35:47.626Z,24.72
2023-07-24T20:38:30.692Z,24.71
2023-07-24T20:40:59.168Z,24.70
2023-07-24T20:43:26.851Z,24.70
2023-07-24T20:45:54.189Z,24.69
2023-07-24T20:48:25.881Z,24.70
2023-07-24T20:50:54.076Z,24.68
2023-07-24T20:53:21.590Z,24.68
2023-07-24T20:55:48.883Z,24.68
2023-07-24T20:58:16.451Z,24.67
2023-07-24T21:00:43.790Z,24.66
2023-07-24T21:03:11.338Z,24.66
2023-07-24T21:05:38.991Z,24.66
2023-07-24T21:08:07.652Z,24.66
2023-07-24T21:10:35.001Z,24.64
2023-07-24T21:13:04.913Z,24.63
2023-07-24T21:15:32.330Z,24.64
2023-07-24T21:17:59.960Z,24.63
2023-07-24T21:20:27.215Z,24.63
2023-07-24T21:22:54.850Z,24.61
2023-07-24T21:25:22.190Z,24.62
2023-07-24T21:27:49.702Z,24.61
2023-07-24T21:30:17.183Z,24.62
2023-07-24T21:32:44.808Z,24.61
2023-07-24T21:35:12.144Z,24.61
2023-07-24T21:37:41.356Z,24.60
2023-07-24T21:40:09.474Z,24.59
2023-07-24T21:42:37.066Z,24.60
2023-07-24T21:45:04.779Z,24.58
2023-07-24T21:47:32.420Z,24.58
2023-07-24T21:49:59.815Z,24.58
2023-07-24T21:52:27.605Z,24.57
2023-07-24T21:54:54.921Z,24.57
2023-07-24T21:57:22.766Z,24.56
2023-07-24T21:59:51.760Z,24.57
2023-07-24T22:02:19.360Z,24.56
2023-07-24T22:04:46.668Z,24.56
2023-07-24T22:07:14.232Z,24.54
2023-07-24T22:09:41.551Z,24.55
2023-07-24T22:12:09.426Z,24.54
2023-07-24T22:14:36.710Z,24.53
2023-07-24T22:17:04.544Z,24.54
2023-07-24T22:19:31.868Z,24.51
2023-07-24T22:21:59.523Z,24.53
2023-07-24T22:24:26.867Z,24.52
2023-07-24T22:26:54.540Z,24.52
2023-07-24T22:29:21.835Z,24.51
2023-07-24T22:31:49.442Z,24.51
2023-07-24T22:34:16.890Z,24.51
2023-07-24T22:36:44.732Z,24.50
2023-07-24T22:39:12.074Z,24.50
2023-07-24T22:41:39.604Z,24.49
2023-07-24T22:44:07.422Z,24.48
2023-07-24T22:46:35.080Z,24.48
2023-07-24T22:49:02.515Z,24.47
2023-07-24T22:51:30.464Z,24.47
2023-07-24T22:53:58.181Z,24.47
2023-07-24T22:56:26.078Z,24.46
2023-07-24T22:59:05.383Z,24.46
2023-07-24T23:01:34.412Z,24.45
2023-07-24T23:04:02.225Z,24.46
2023-07-24T23:06:29.817Z,24.45
2023-07-24T23:08:57.105Z,24.45
2023-07-24T23:11:24.679Z,24.43
2023-07-24T23:13:51.970Z,24.43
2023-07-24T23:16:19.654Z,24.43
2023-07-24T23:18:46.981Z,24.44
2023-07-24T23:21:14.549Z,24.43
2023-07-24T23:23:41.837Z,24.42
2023-07-24T23:26:09.392Z,24.42
2023-07-24T23:28:36.753Z,24.41
2023-07-24T23:31:07.922Z,24.41
2023-07-24T23:33:36.356Z,24.41
2023-07-24T23:36:07.887Z,24.39
2023-07-24T23:38:36.236Z,24.39
2023-07-24T23:41:05.703Z,24.39
2023-07-24T23:43:33.474Z,24.38
2023-07-24T23:46:01.050Z,24.38
2023-07-24T23:48:28.600Z,24.37
2023-07-24T23:50:56.093Z,24.38
2023-07-24T23:53:23.405Z,24.37
2023-07-24T23:55:50.969Z,24.37
2023-07-24T23:58:18.296Z,24.36
